Pauini, Brazil
Current Conditions -  °F | °C
As of 11:00 AM on Thursday 18 Dec 2014 (Local Time) from SBRB Reporting Station
Broken Clouds Broken Clouds  
Wind Chill: 86°   Ceiling: 2500
Heat Index: 92°   Visibility: 6mi
Dew Point: 72°   Wind: 15mph
Humidity: 62%   Direction: 320°NW
Pressure: 29.88"   Gusts: NA
Location:  7.66°S, 66.98°W
Report Text: SBRB 181500Z 32013KT 9999 BKN025 30/22 Q1012
Loading
Personal Weather Stations






























Interactive Weather Map New forecast layout! Learn more

10-Day Weather Forecast

Advertisements
Track Severe Weather on mobile